createdAt,value
2019-03-19T00:00:28.062Z,1.98
2019-03-19T00:02:56.581Z,2.35
2019-03-19T00:05:25.455Z,1.82
2019-03-19T00:07:54.029Z,2.12
2019-03-19T00:10:22.560Z,2.00
2019-03-19T00:13:01.330Z,2.05
2019-03-19T00:15:30.123Z,1.67
2019-03-19T00:17:58.595Z,2.08
2019-03-19T00:20:27.159Z,1.77
2019-03-19T00:22:55.767Z,1.98
2019-03-19T00:25:29.977Z,1.47
2019-03-19T00:27:54.534Z,2.37
2019-03-19T00:30:23.067Z,1.80
2019-03-19T00:32:51.531Z,1.95
2019-03-19T00:35:20.092Z,2.25
2019-03-19T00:37:48.762Z,2.45
2019-03-19T00:40:17.471Z,2.20
2019-03-19T00:42:46.004Z,1.87
2019-03-19T00:45:35.448Z,2.02
2019-03-19T00:48:04.131Z,1.92
2019-03-19T00:50:32.682Z,1.52
2019-03-19T00:53:01.262Z,2.22
2019-03-19T00:55:40.008Z,2.12
2019-03-19T00:58:00.031Z,1.90
2019-03-19T01:00:28.982Z,2.05
2019-03-19T01:02:57.553Z,2.20
2019-03-19T01:05:26.091Z,1.47
2019-03-19T01:07:54.668Z,1.95
2019-03-19T01:10:23.291Z,2.17
2019-03-19T01:12:52.103Z,1.70
2019-03-19T01:15:20.695Z,2.33
2019-03-19T01:17:49.234Z,2.55
2019-03-19T01:20:17.804Z,1.82
2019-03-19T01:22:46.402Z,1.80
2019-03-19T01:25:15.011Z,1.75
2019-03-19T01:27:43.585Z,1.47
2019-03-19T01:30:36.040Z,1.95
2019-03-19T01:33:04.738Z,2.12
2019-03-19T01:35:33.275Z,1.75
2019-03-19T01:38:01.819Z,1.82
2019-03-19T01:40:30.391Z,2.50
2019-03-19T01:42:58.949Z,2.33
2019-03-19T01:45:27.511Z,2.08
2019-03-19T01:47:55.984Z,2.47
2019-03-19T01:50:24.529Z,2.67
2019-03-19T01:52:53.094Z,1.95
2019-03-19T01:55:21.628Z,2.50
2019-03-19T01:57:50.182Z,1.85
2019-03-19T02:00:19.802Z,2.10
2019-03-19T02:02:48.347Z,2.12
2019-03-19T02:05:17.063Z,2.10
2019-03-19T02:07:45.672Z,2.08
2019-03-19T02:10:35.102Z,2.10
2019-03-19T02:13:03.806Z,3.37
2019-03-19T02:15:32.267Z,1.62
2019-03-19T02:18:00.855Z,2.15
2019-03-19T02:20:29.452Z,1.70
2019-03-19T02:22:58.058Z,1.90
2019-03-19T02:25:26.627Z,1.67
2019-03-19T02:27:55.204Z,2.20
2019-03-19T02:30:23.744Z,2.05
2019-03-19T02:32:52.297Z,1.50
2019-03-19T02:35:20.841Z,2.00
2019-03-19T02:37:49.380Z,1.70
2019-03-19T02:40:18.025Z,1.90
2019-03-19T02:42:46.640Z,2.22
2019-03-19T02:45:15.738Z,1.67
2019-03-19T02:47:44.628Z,1.55
2019-03-19T02:50:17.329Z,2.02
2019-03-19T02:52:45.985Z,1.45
2019-03-19T02:55:14.606Z,1.80
2019-03-19T02:57:43.221Z,1.62
2019-03-19T03:00:13.706Z,2.25
2019-03-19T03:02:42.403Z,1.98
2019-03-19T03:05:13.666Z,1.75
2019-03-19T03:07:42.216Z,1.80
2019-03-19T03:10:12.626Z,1.92
2019-03-19T03:12:41.172Z,1.77
2019-03-19T03:15:11.586Z,1.42
2019-03-19T03:17:59.456Z,2.08
2019-03-19T03:22:55.803Z,1.32
2019-03-19T03:25:24.348Z,2.15
2019-03-19T03:27:52.944Z,2.37
2019-03-19T03:30:42.358Z,1.85
2019-03-19T03:33:11.092Z,1.80
2019-03-19T03:35:39.629Z,2.00
2019-03-19T03:38:08.242Z,2.50
2019-03-19T03:40:36.818Z,1.77
2019-03-19T03:43:26.218Z,1.42
2019-03-19T03:45:54.778Z,1.70
2019-03-19T03:48:23.251Z,1.62
2019-03-19T03:50:51.871Z,2.00
2019-03-19T03:53:20.437Z,1.82
2019-03-19T03:55:48.991Z,2.12
2019-03-19T03:58:17.591Z,1.90
2019-03-19T04:00:46.230Z,1.37
2019-03-19T04:03:14.848Z,2.22
2019-03-19T04:05:43.383Z,1.20
2019-03-19T04:08:11.953Z,1.72
2019-03-19T04:10:40.498Z,2.30
2019-03-19T04:13:09.043Z,2.60
2019-03-19T04:15:37.617Z,1.90
2019-03-19T04:18:06.235Z,2.10
2019-03-19T04:20:34.778Z,2.50
2019-03-19T04:23:22.842Z,1.90
2019-03-19T04:25:51.341Z,2.65
2019-03-19T04:28:19.889Z,2.40
2019-03-19T04:30:48.434Z,2.27
2019-03-19T04:33:16.999Z,2.15
2019-03-19T04:35:45.559Z,1.85
2019-03-19T04:38:14.143Z,2.65
2019-03-19T04:40:42.680Z,1.77
2019-03-19T04:43:11.233Z,2.37
2019-03-19T04:45:39.797Z,2.30
2019-03-19T04:48:08.350Z,2.20
2019-03-19T04:50:36.917Z,1.82
2019-03-19T04:53:05.463Z,2.87
2019-03-19T04:55:33.943Z,2.45
2019-03-19T04:58:02.521Z,3.05
2019-03-19T05:00:31.122Z,2.12
2019-03-19T05:02:59.749Z,2.85
2019-03-19T05:05:28.324Z,3.15
2019-03-19T05:07:56.854Z,2.98
2019-03-19T05:10:25.391Z,2.75
2019-03-19T05:12:53.966Z,3.20
2019-03-19T05:15:22.503Z,2.80
2019-03-19T05:17:51.118Z,2.92
2019-03-19T05:20:19.701Z,2.98
2019-03-19T05:22:48.250Z,3.25
2019-03-19T05:25:16.805Z,3.55
2019-03-19T05:27:45.371Z,4.15
2019-03-19T05:30:20.756Z,4.00
2019-03-19T05:32:49.594Z,4.97
2019-03-19T05:35:18.195Z,3.92
2019-03-19T05:37:46.769Z,4.47
2019-03-19T05:43:06.590Z,4.33
2019-03-19T05:45:35.137Z,3.60
2019-03-19T05:48:03.750Z,4.03
2019-03-19T05:50:32.329Z,3.25
2019-03-19T05:53:00.880Z,3.65
2019-03-19T05:55:29.429Z,3.15
2019-03-19T05:57:59.382Z,4.22
2019-03-19T06:00:29.749Z,3.67
2019-03-19T06:02:58.387Z,3.77
2019-03-19T06:05:26.995Z,3.95
2019-03-19T06:07:55.542Z,3.77
2019-03-19T06:10:26.033Z,3.65
2019-03-19T06:12:54.319Z,3.75
2019-03-19T06:15:22.867Z,3.62
2019-03-19T06:17:51.825Z,3.67
2019-03-19T06:20:20.908Z,3.40
2019-03-19T06:22:49.450Z,3.22
2019-03-19T06:25:18.084Z,3.77
2019-03-19T06:27:46.706Z,3.40
2019-03-19T06:30:39.367Z,3.77
2019-03-19T06:33:08.794Z,3.12
2019-03-19T06:35:37.405Z,4.15
2019-03-19T06:38:06.084Z,4.00
2019-03-19T06:40:36.419Z,4.35
2019-03-19T06:43:05.044Z,3.72
2019-03-19T06:45:33.624Z,5.47
2019-03-19T06:48:02.252Z,5.53
2019-03-19T06:50:30.868Z,4.40
2019-03-19T06:52:59.451Z,4.55
2019-03-19T06:55:28.025Z,4.10
2019-03-19T07:00:52.949Z,3.40
2019-03-19T07:03:32.225Z,3.55
2019-03-19T07:06:01.510Z,3.65
2019-03-19T07:08:30.153Z,3.35
2019-03-19T07:10:58.791Z,3.52
2019-03-19T07:13:27.459Z,3.12
2019-03-19T07:15:56.159Z,3.42
2019-03-19T07:18:25.010Z,3.62
2019-03-19T07:20:53.645Z,3.95
2019-03-19T07:23:24.214Z,3.35
2019-03-19T07:38:33.529Z,3.08
2019-03-19T08:01:26.083Z,4.35
2019-03-19T08:03:54.716Z,3.42
2019-03-19T08:06:23.344Z,3.37
2019-03-19T08:08:51.883Z,3.42
2019-03-19T08:11:20.545Z,3.45
2019-03-19T08:13:49.402Z,3.35
2019-03-19T08:16:26.994Z,2.92
2019-03-19T08:18:48.143Z,3.37
2019-03-19T08:21:16.763Z,3.22
2019-03-19T08:23:45.676Z,3.47
2019-03-19T08:26:14.251Z,2.90
2019-03-19T08:28:43.048Z,2.95
2019-03-19T08:31:11.934Z,2.70
2019-03-19T08:33:40.575Z,3.30
2019-03-19T08:36:09.766Z,3.17
2019-03-19T08:38:38.415Z,3.22
2019-03-19T08:41:06.966Z,2.50
2019-03-19T08:43:35.499Z,2.35
2019-03-19T08:46:04.139Z,3.47
2019-03-19T08:48:32.674Z,2.70
2019-03-19T08:51:01.217Z,1.90
2019-03-19T08:53:29.778Z,1.47
2019-03-19T08:55:58.579Z,2.00
2019-03-19T08:58:27.122Z,2.33
2019-03-19T09:00:55.955Z,2.72
2019-03-19T09:03:24.494Z,2.35
2019-03-19T09:05:53.042Z,1.90
2019-03-19T09:08:21.626Z,2.60
2019-03-19T09:10:50.163Z,2.58
2019-03-19T09:13:18.714Z,1.95
2019-03-19T09:15:47.271Z,1.90
2019-03-19T09:18:16.249Z,2.33
2019-03-19T09:20:44.824Z,1.90
2019-03-19T09:23:13.379Z,1.80
2019-03-19T09:25:42.187Z,1.95
2019-03-19T09:34:05.679Z,2.27
2019-03-19T09:36:34.206Z,2.45
2019-03-19T09:39:02.819Z,2.02
2019-03-19T09:41:31.459Z,2.10
2019-03-19T09:43:59.996Z,2.20
2019-03-19T09:46:29.206Z,2.27
2019-03-19T09:48:57.773Z,1.85
2019-03-19T09:51:26.310Z,2.00
2019-03-19T09:53:54.890Z,2.08
2019-03-19T09:56:23.433Z,2.20
2019-03-19T09:58:51.980Z,2.30
2019-03-19T10:01:20.774Z,2.20
2019-03-19T10:03:51.424Z,2.00
2019-03-19T10:06:19.699Z,2.22
2019-03-19T10:08:48.507Z,2.02
2019-03-19T10:11:17.063Z,1.82
2019-03-19T10:13:45.552Z,1.52
2019-03-19T10:16:14.117Z,1.95
2019-03-19T10:18:43.458Z,1.90
2019-03-19T10:21:12.004Z,1.72
2019-03-19T10:23:40.599Z,1.42
2019-03-19T10:26:09.139Z,1.55
2019-03-19T10:28:37.707Z,1.72
2019-03-19T10:31:06.987Z,1.95
2019-03-19T10:33:35.526Z,1.72
2019-03-19T10:36:04.237Z,2.02
2019-03-19T10:38:32.850Z,1.50
2019-03-19T10:41:01.401Z,1.80
2019-03-19T10:43:29.963Z,1.70
2019-03-19T10:45:58.882Z,1.67
2019-03-19T10:48:27.354Z,2.12
2019-03-19T10:50:55.919Z,1.77
2019-03-19T10:53:24.450Z,1.32
2019-03-19T10:55:53.015Z,1.52
2019-03-19T10:58:21.559Z,1.87
2019-03-19T11:00:50.103Z,1.32
2019-03-19T11:03:18.670Z,1.57
2019-03-19T11:05:47.350Z,2.02
2019-03-19T11:08:16.003Z,2.02
2019-03-19T11:10:44.668Z,1.70
2019-03-19T11:13:13.219Z,1.90
2019-03-19T11:15:44.539Z,2.00
2019-03-19T11:18:13.432Z,1.87
2019-03-19T11:20:42.006Z,2.20
2019-03-19T11:23:10.546Z,2.20
2019-03-19T11:25:39.092Z,1.62
2019-03-19T11:28:07.638Z,1.65
2019-03-19T11:30:36.546Z,1.80
2019-03-19T11:33:24.375Z,1.77
2019-03-19T11:35:52.996Z,1.10
2019-03-19T11:38:21.535Z,1.62
2019-03-19T11:40:50.159Z,1.50
2019-03-19T11:43:18.695Z,1.67
2019-03-19T11:45:47.316Z,1.05
2019-03-19T11:48:15.942Z,2.05
2019-03-19T11:50:44.479Z,1.50
2019-03-19T11:53:13.056Z,2.10
2019-03-19T11:55:41.659Z,1.42
2019-03-19T11:58:10.204Z,1.57
2019-03-19T12:00:40.473Z,1.40
2019-03-19T12:03:15.505Z,2.15
2019-03-19T12:05:39.328Z,1.40
2019-03-19T12:08:07.882Z,1.57
2019-03-19T12:10:36.502Z,1.90
2019-03-19T12:13:05.590Z,1.25
2019-03-19T12:15:34.144Z,1.27
2019-03-19T12:18:02.671Z,1.20
2019-03-19T12:20:31.315Z,1.60
2019-03-19T12:22:59.854Z,1.27
2019-03-19T12:25:28.393Z,1.37
2019-03-19T12:27:56.953Z,1.10
2019-03-19T12:30:26.552Z,1.67
2019-03-19T12:32:55.395Z,1.67
2019-03-19T12:35:24.373Z,1.80
2019-03-19T12:37:52.991Z,2.33
2019-03-19T12:40:42.411Z,1.60
2019-03-19T12:43:11.314Z,1.45
2019-03-19T12:45:41.378Z,1.20
2019-03-19T12:48:09.971Z,1.40
2019-03-19T12:50:38.536Z,1.22
2019-03-19T12:53:07.197Z,1.50
2019-03-19T12:55:35.798Z,1.22
2019-03-19T12:58:05.097Z,1.30
2019-03-19T13:00:35.012Z,1.57
2019-03-19T13:03:03.943Z,2.05
2019-03-19T13:05:51.848Z,1.55
2019-03-19T13:08:20.537Z,1.40
2019-03-19T13:10:49.422Z,1.42
2019-03-19T13:13:17.999Z,1.85
2019-03-19T13:15:46.603Z,1.25
2019-03-19T13:18:15.166Z,1.32
2019-03-19T13:20:43.703Z,1.55
2019-03-19T13:23:12.246Z,1.77
2019-03-19T13:25:40.811Z,1.95
2019-03-19T13:28:09.347Z,1.60
2019-03-19T13:30:44.962Z,1.40
2019-03-19T13:33:08.462Z,1.57
2019-03-19T13:35:37.028Z,1.65
2019-03-19T13:38:05.707Z,1.40
2019-03-19T13:40:34.320Z,1.80
2019-03-19T13:43:03.263Z,1.77
2019-03-19T13:45:31.871Z,1.75
2019-03-19T13:48:00.461Z,1.98
2019-03-19T13:50:29.367Z,1.85
2019-03-19T13:52:57.915Z,2.27
2019-03-19T13:55:26.462Z,2.00
2019-03-19T13:57:55.032Z,1.87
2019-03-19T14:00:23.636Z,1.90
2019-03-19T14:02:52.590Z,2.05
2019-03-19T14:05:21.129Z,3.92
2019-03-19T14:07:49.667Z,2.55
2019-03-19T14:10:20.223Z,1.80
2019-03-19T14:12:49.098Z,1.37
2019-03-19T14:15:23.529Z,2.52
2019-03-19T14:17:52.052Z,7.70
2019-03-19T14:20:20.595Z,2.50
2019-03-19T14:22:49.541Z,2.10
2019-03-19T14:25:18.280Z,1.30
2019-03-19T14:27:46.886Z,2.15
2019-03-19T14:30:36.315Z,1.65
2019-03-19T14:33:05.170Z,1.77
2019-03-19T14:35:37.549Z,2.10
2019-03-19T14:38:04.006Z,2.30
2019-03-19T14:40:32.662Z,1.77
2019-03-19T14:43:01.603Z,2.05
2019-03-19T14:45:30.262Z,2.85
2019-03-19T14:47:58.918Z,1.90
2019-03-19T14:50:27.484Z,1.87
2019-03-19T14:52:56.391Z,1.52
2019-03-19T14:55:25.135Z,1.42
2019-03-19T14:57:53.708Z,1.72
2019-03-19T15:00:23.208Z,1.42
2019-03-19T15:02:52.167Z,1.72
2019-03-19T15:05:21.171Z,1.50
2019-03-19T15:07:49.682Z,1.30
2019-03-19T15:10:39.123Z,1.50
2019-03-19T15:13:07.679Z,1.62
2019-03-19T15:15:36.278Z,1.67
2019-03-19T15:18:05.082Z,1.60
2019-03-19T15:20:33.622Z,1.47
2019-03-19T15:23:02.428Z,1.30
2019-03-19T15:25:30.991Z,1.22
2019-03-19T15:27:59.541Z,1.45
2019-03-19T15:30:28.138Z,1.20
2019-03-19T15:32:56.710Z,1.77
2019-03-19T15:35:25.260Z,1.40
2019-03-19T15:37:53.786Z,1.45
2019-03-19T15:40:22.355Z,1.22
2019-03-19T15:42:50.891Z,1.57
2019-03-19T15:45:43.264Z,1.70
2019-03-19T15:48:11.799Z,2.00
2019-03-19T15:50:40.591Z,1.32
2019-03-19T15:53:09.228Z,1.90
2019-03-19T15:55:37.843Z,1.15
2019-03-19T15:58:06.443Z,1.50
2019-03-19T16:00:35.330Z,1.60
2019-03-19T16:03:04.071Z,1.62
2019-03-19T16:05:32.602Z,1.50
2019-03-19T16:08:01.489Z,1.70
2019-03-19T16:10:30.378Z,1.85
2019-03-19T16:12:58.844Z,1.67
2019-03-19T16:15:27.406Z,1.80
2019-03-19T16:17:55.874Z,2.00
2019-03-19T16:20:24.860Z,1.62
2019-03-19T16:22:53.451Z,1.17
2019-03-19T16:25:22.050Z,1.62
2019-03-19T16:27:50.667Z,1.32
2019-03-19T16:30:40.090Z,1.40
2019-03-19T16:33:08.623Z,2.25
2019-03-19T16:35:37.185Z,1.70
2019-03-19T16:38:05.886Z,1.80
2019-03-19T16:40:34.566Z,1.60
2019-03-19T16:43:03.099Z,2.15
2019-03-19T16:45:31.659Z,1.42
2019-03-19T16:48:00.528Z,1.12
2019-03-19T16:50:29.064Z,1.00
2019-03-19T16:52:57.631Z,1.42
2019-03-19T16:55:26.171Z,1.47
2019-03-19T16:57:54.728Z,1.95
2019-03-19T17:00:48.534Z,1.30
2019-03-19T17:03:17.105Z,1.40
2019-03-19T17:05:45.717Z,1.30
2019-03-19T17:08:14.255Z,1.35
2019-03-19T17:10:42.818Z,1.40
2019-03-19T17:13:11.286Z,1.70
2019-03-19T17:15:39.826Z,1.35
2019-03-19T17:18:08.706Z,1.52
2019-03-19T17:20:37.595Z,1.10
2019-03-19T17:23:06.311Z,1.62
2019-03-19T17:25:34.896Z,1.70
2019-03-19T17:28:03.464Z,2.05
2019-03-19T17:30:52.915Z,1.57
2019-03-19T17:33:21.517Z,1.15
2019-03-19T17:35:50.169Z,2.10
2019-03-19T17:38:18.775Z,1.70
2019-03-19T17:40:47.345Z,2.05
2019-03-19T17:43:16.003Z,1.98
2019-03-19T17:45:44.533Z,2.35
2019-03-19T17:48:16.440Z,2.27
2019-03-19T17:51:04.416Z,2.55
2019-03-19T17:53:32.983Z,2.33
2019-03-19T17:56:01.586Z,2.50
2019-03-19T17:58:30.366Z,2.92
2019-03-19T18:00:58.964Z,2.62
2019-03-19T18:03:27.502Z,2.55
2019-03-19T18:05:56.068Z,3.20
2019-03-19T18:08:24.679Z,3.80
2019-03-19T18:10:53.487Z,3.30
2019-03-19T18:13:22.079Z,4.58
2019-03-19T18:15:50.620Z,4.50
2019-03-19T18:18:19.445Z,5.00
2019-03-19T18:20:48.434Z,5.15
2019-03-19T18:23:18.239Z,5.90
2019-03-19T18:25:47.122Z,6.03
2019-03-19T18:28:35.052Z,5.10
2019-03-19T18:31:05.959Z,5.33
2019-03-19T18:33:34.495Z,4.90
2019-03-19T18:36:03.203Z,5.05
2019-03-19T18:38:31.825Z,4.28
2019-03-19T18:41:00.590Z,4.45
2019-03-19T18:43:29.159Z,5.28
2019-03-19T18:45:57.766Z,5.28
2019-03-19T18:48:26.342Z,5.00
2019-03-19T18:50:55.303Z,5.25
2019-03-19T18:53:23.819Z,6.03
2019-03-19T18:55:52.982Z,4.45
2019-03-19T18:58:21.683Z,4.53
2019-03-19T19:00:50.347Z,6.10
2019-03-19T19:03:19.106Z,8.30
2019-03-19T19:05:47.692Z,6.37
2019-03-19T19:08:16.262Z,5.85
2019-03-19T19:10:44.874Z,5.05
2019-03-19T19:13:13.754Z,5.03
2019-03-19T19:15:42.398Z,4.60
2019-03-19T19:18:11.169Z,5.22
2019-03-19T19:20:40.326Z,5.03
2019-03-19T19:23:09.271Z,5.28
2019-03-19T19:25:37.857Z,5.08
2019-03-19T19:28:09.144Z,5.58
2019-03-19T19:30:37.910Z,5.70
2019-03-19T19:33:06.584Z,4.97
2019-03-19T19:35:35.140Z,4.28
2019-03-19T19:38:03.952Z,4.83
2019-03-19T19:40:32.665Z,4.97
2019-03-19T19:43:01.203Z,4.67
2019-03-19T19:45:29.748Z,5.53
2019-03-19T19:47:58.309Z,4.33
2019-03-19T19:50:27.035Z,5.58
2019-03-19T19:52:55.965Z,3.98
2019-03-19T19:55:24.483Z,6.00
2019-03-19T19:57:53.122Z,4.95
2019-03-19T20:00:45.615Z,5.40
2019-03-19T20:03:14.184Z,6.42
2019-03-19T20:05:42.885Z,6.83
2019-03-19T20:08:11.450Z,6.03
2019-03-19T20:10:40.019Z,5.55
2019-03-19T20:13:20.872Z,5.65
2019-03-19T20:15:49.633Z,4.28
2019-03-19T20:18:18.172Z,4.40
2019-03-19T20:20:47.061Z,4.72
2019-03-19T20:23:15.851Z,3.42
2019-03-19T20:25:44.392Z,4.05
2019-03-19T20:28:12.958Z,4.35
2019-03-19T20:30:41.497Z,4.62
2019-03-19T20:33:10.131Z,4.12
2019-03-19T20:35:38.666Z,4.25
2019-03-19T20:38:07.207Z,4.45
2019-03-19T20:40:35.840Z,4.22
2019-03-19T20:43:04.446Z,4.40
2019-03-19T20:48:32.407Z,5.58
2019-03-19T20:51:01.286Z,3.92
2019-03-19T20:53:29.853Z,4.15
2019-03-19T20:55:58.458Z,6.10
2019-03-19T20:58:27.247Z,6.15
2019-03-19T21:00:56.231Z,6.00
2019-03-19T21:03:35.269Z,5.37
2019-03-19T21:05:54.999Z,5.85
2019-03-19T21:08:23.578Z,4.50
2019-03-19T21:10:52.402Z,4.80
2019-03-19T21:13:21.767Z,4.22
2019-03-19T21:15:50.242Z,5.45
2019-03-19T21:18:18.815Z,4.92
2019-03-19T21:20:47.361Z,5.20
2019-03-19T21:23:16.028Z,4.55
2019-03-19T21:25:44.785Z,5.25
2019-03-19T21:28:14.573Z,5.45
2019-03-19T21:30:43.348Z,4.87
2019-03-19T21:33:11.926Z,5.65
2019-03-19T21:35:40.788Z,6.10
2019-03-19T21:38:09.423Z,5.72
2019-03-19T21:40:38.267Z,5.17
2019-03-19T21:43:06.885Z,5.20
2019-03-19T21:45:35.446Z,4.72
2019-03-19T21:48:03.911Z,4.15
2019-03-19T21:50:32.615Z,4.03
2019-03-19T21:53:01.489Z,4.65
2019-03-19T21:55:30.115Z,4.03
2019-03-19T21:57:58.687Z,5.00
2019-03-19T22:00:27.606Z,4.05
2019-03-19T22:02:56.244Z,4.55
2019-03-19T22:05:24.877Z,3.95
2019-03-19T22:07:53.414Z,5.25
2019-03-19T22:10:23.027Z,5.30
2019-03-19T22:12:51.567Z,6.00
2019-03-19T22:18:05.131Z,4.40
2019-03-19T22:20:33.776Z,5.15
2019-03-19T22:23:02.323Z,5.08
2019-03-19T22:25:30.866Z,4.97
2019-03-19T22:27:59.430Z,5.25
2019-03-19T22:30:28.067Z,6.05
2019-03-19T22:32:56.614Z,5.50
2019-03-19T22:35:25.178Z,5.78
2019-03-19T22:37:53.726Z,5.92
2019-03-19T22:40:22.459Z,6.00
2019-03-19T22:42:51.273Z,5.72
2019-03-19T22:45:20.178Z,5.87
2019-03-19T22:47:48.888Z,5.03
2019-03-19T22:50:18.546Z,5.42
2019-03-19T22:52:47.239Z,7.05
2019-03-19T22:55:36.684Z,4.95
2019-03-19T22:58:05.698Z,5.28
2019-03-19T23:03:12.959Z,5.72
2019-03-19T23:05:41.995Z,5.08
2019-03-19T23:08:10.738Z,5.50
2019-03-19T23:10:39.342Z,6.35
2019-03-19T23:13:08.254Z,6.10
2019-03-19T23:15:36.866Z,5.03
2019-03-19T23:18:05.639Z,5.15
2019-03-19T23:20:34.266Z,5.15
2019-03-19T23:23:02.820Z,5.00
2019-03-19T23:25:31.485Z,5.08
2019-03-19T23:28:00.359Z,5.25
2019-03-19T23:30:29.068Z,5.60
2019-03-19T23:32:57.719Z,5.60
2019-03-19T23:35:26.243Z,5.08
2019-03-19T23:37:54.810Z,5.72
2019-03-19T23:40:23.642Z,6.30
2019-03-19T23:42:53.734Z,5.62
2019-03-19T23:45:22.317Z,6.15
2019-03-19T23:47:50.858Z,5.37
2019-03-19T23:50:23.695Z,4.92
2019-03-19T23:52:52.378Z,4.95
2019-03-19T23:55:20.979Z,5.83
2019-03-19T23:57:49.687Z,5.33
